sensor_id;sensor_type;location;lat;lon;timestamp;pressure;altitude;pressure_sealevel;temperature;humidity
59274;BME280;45044;41.572;24.730;2022-09-28T00:01:19;90596.50;;;10.86;100.00
59274;BME280;45044;41.572;24.730;2022-09-28T00:03:48;90598.38;;;10.86;100.00
59274;BME280;45044;41.572;24.730;2022-09-28T00:06:18;90588.91;;;10.96;100.00
59274;BME280;45044;41.572;24.730;2022-09-28T00:08:45;90591.16;;;10.94;100.00
59274;BME280;45044;41.572;24.730;2022-09-28T00:11:13;90598.41;;;10.40;100.00
59274;BME280;45044;41.572;24.730;2022-09-28T00:13:42;90596.13;;;10.42;100.00
59274;BME280;45044;41.572;24.730;2022-09-28T00:16:12;90596.16;;;10.38;100.00
59274;BME280;45044;41.572;24.730;2022-09-28T00:18:40;90580.75;;;10.40;100.00
59274;BME280;45044;41.572;24.730;2022-09-28T00:21:17;90587.09;;;10.47;100.00
59274;BME280;45044;41.572;24.730;2022-09-28T00:23:44;90587.78;;;10.54;100.00
59274;BME280;45044;41.572;24.730;2022-09-28T00:26:31;90584.44;;;10.54;100.00
59274;BME280;45044;41.572;24.730;2022-09-28T00:29:00;90586.22;;;10.64;100.00
59274;BME280;45044;41.572;24.730;2022-09-28T00:31:30;90579.06;;;10.65;100.00
59274;BME280;45044;41.572;24.730;2022-09-28T00:34:00;90569.75;;;10.57;100.00
59274;BME280;45044;41.572;24.730;2022-09-28T00:36:29;90573.13;;;10.57;100.00
59274;BME280;45044;41.572;24.730;2022-09-28T00:38:57;90576.47;;;10.61;100.00
59274;BME280;45044;41.572;24.730;2022-09-28T00:41:26;90561.47;;;10.58;100.00
59274;BME280;45044;41.572;24.730;2022-09-28T00:46:53;90570.75;;;10.28;100.00
59274;BME280;45044;41.572;24.730;2022-09-28T00:49:30;90569.28;;;10.19;100.00
59274;BME280;45044;41.572;24.730;2022-09-28T00:51:59;90569.91;;;10.38;100.00
59274;BME280;45044;41.572;24.730;2022-09-28T00:54:27;90566.22;;;10.32;100.00
59274;BME280;45044;41.572;24.730;2022-09-28T00:56:54;90564.69;;;10.31;100.00
59274;BME280;45044;41.572;24.730;2022-09-28T00:59:21;90572.19;;;10.33;100.00
59274;BME280;45044;41.572;24.730;2022-09-28T01:01:50;90568.31;;;10.02;100.00
59274;BME280;45044;41.572;24.730;2022-09-28T01:04:16;90572.75;;;10.09;100.00
59274;BME280;45044;41.572;24.730;2022-09-28T01:06:44;90569.44;;;10.05;100.00
59274;BME280;45044;41.572;24.730;2022-09-28T01:09:12;90569.56;;;9.87;100.00
59274;BME280;45044;41.572;24.730;2022-09-28T01:11:40;90578.00;;;10.09;100.00
59274;BME280;45044;41.572;24.730;2022-09-28T01:14:11;90578.00;;;10.09;100.00
59274;BME280;45044;41.572;24.730;2022-09-28T01:25:18;90565.84;;;9.80;100.00
59274;BME280;45044;41.572;24.730;2022-09-28T01:27:56;90577.94;;;9.67;100.00
59274;BME280;45044;41.572;24.730;2022-09-28T01:30:25;90572.69;;;9.63;100.00
59274;BME280;45044;41.572;24.730;2022-09-28T01:33:08;90568.94;;;9.68;100.00
59274;BME280;45044;41.572;24.730;2022-09-28T01:35:43;90570.34;;;9.80;100.00
59274;BME280;45044;41.572;24.730;2022-09-28T01:38:38;90559.84;;;9.80;100.00
59274;BME280;45044;41.572;24.730;2022-09-28T01:41:06;90565.03;;;9.91;100.00
59274;BME280;45044;41.572;24.730;2022-09-28T01:43:38;90557.16;;;9.87;100.00
59274;BME280;45044;41.572;24.730;2022-09-28T01:46:09;90558.06;;;9.66;100.00
59274;BME280;45044;41.572;24.730;2022-09-28T01:48:48;90556.53;;;9.76;100.00
59274;BME280;45044;41.572;24.730;2022-09-28T01:54:13;90560.72;;;9.62;100.00
59274;BME280;45044;41.572;24.730;2022-09-28T02:00:10;90565.25;;;9.54;100.00
59274;BME280;45044;41.572;24.730;2022-09-28T02:02:46;90551.31;;;9.68;100.00
59274;BME280;45044;41.572;24.730;2022-09-28T02:07:58;90555.47;;;9.62;100.00
59274;BME280;45044;41.572;24.730;2022-09-28T02:10:38;90560.31;;;9.67;100.00
59274;BME280;45044;41.572;24.730;2022-09-28T02:13:19;90563.84;;;9.39;100.00
59274;BME280;45044;41.572;24.730;2022-09-28T02:15:51;90561.63;;;9.37;100.00
59274;BME280;45044;41.572;24.730;2022-09-28T02:18:19;90564.59;;;9.43;100.00
59274;BME280;45044;41.572;24.730;2022-09-28T02:20:51;90564.97;;;9.45;100.00
59274;BME280;45044;41.572;24.730;2022-09-28T02:23:22;90567.19;;;9.50;100.00
59274;BME280;45044;41.572;24.730;2022-09-28T02:25:59;90569.16;;;9.28;100.00
59274;BME280;45044;41.572;24.730;2022-09-28T02:28:26;90532.53;;;9.13;100.00
59274;BME280;45044;41.572;24.730;2022-09-28T02:30:54;90564.66;;;9.28;100.00
59274;BME280;45044;41.572;24.730;2022-09-28T02:33:25;90568.75;;;9.37;100.00
59274;BME280;45044;41.572;24.730;2022-09-28T02:35:54;90572.91;;;9.30;100.00
59274;BME280;45044;41.572;24.730;2022-09-28T02:38:21;90555.69;;;9.26;100.00
59274;BME280;45044;41.572;24.730;2022-09-28T02:41:04;90567.28;;;9.32;100.00
59274;BME280;45044;41.572;24.730;2022-09-28T02:44:06;90559.47;;;9.17;100.00
59274;BME280;45044;41.572;24.730;2022-09-28T02:46:50;90559.06;;;9.22;100.00
59274;BME280;45044;41.572;24.730;2022-09-28T02:49:49;90553.84;;;9.19;100.00
59274;BME280;45044;41.572;24.730;2022-09-28T03:00:18;90546.50;;;8.88;100.00
59274;BME280;45044;41.572;24.730;2022-09-28T03:08:21;90564.84;;;8.88;100.00
59274;BME280;45044;41.572;24.730;2022-09-28T03:10:55;90547.22;;;8.92;100.00
59274;BME280;45044;41.572;24.730;2022-09-28T03:13:25;90552.88;;;8.76;100.00
59274;BME280;45044;41.572;24.730;2022-09-28T03:18:33;90553.63;;;8.77;100.00
59274;BME280;45044;41.572;24.730;2022-09-28T03:21:00;90558.13;;;8.72;100.00
59274;BME280;45044;41.572;24.730;2022-09-28T03:23:28;90553.59;;;8.88;100.00
59274;BME280;45044;41.572;24.730;2022-09-28T03:25:54;90559.25;;;8.82;100.00
59274;BME280;45044;41.572;24.730;2022-09-28T03:28:21;90536.09;;;8.66;100.00
59274;BME280;45044;41.572;24.730;2022-09-28T03:30:48;90569.34;;;8.84;100.00
59274;BME280;45044;41.572;24.730;2022-09-28T03:33:15;90566.03;;;8.58;100.00
59274;BME280;45044;41.572;24.730;2022-09-28T03:35:46;90571.63;;;8.74;100.00
59274;BME280;45044;41.572;24.730;2022-09-28T03:38:13;90579.50;;;8.60;100.00
59274;BME280;45044;41.572;24.730;2022-09-28T03:40:40;90569.78;;;8.64;100.00
59274;BME280;45044;41.572;24.730;2022-09-28T03:43:07;90554.47;;;8.41;100.00
59274;BME280;45044;41.572;24.730;2022-09-28T03:45:33;90577.66;;;8.57;100.00
59274;BME280;45044;41.572;24.730;2022-09-28T03:48:00;90560.44;;;8.59;100.00
59274;BME280;45044;41.572;24.730;2022-09-28T03:50:27;90567.13;;;8.71;100.00
59274;BME280;45044;41.572;24.730;2022-09-28T03:52:54;90563.78;;;8.67;100.00
59274;BME280;45044;41.572;24.730;2022-09-28T03:55:21;90564.88;;;8.73;100.00
59274;BME280;45044;41.572;24.730;2022-09-28T03:57:54;90561.88;;;8.79;100.00
59274;BME280;45044;41.572;24.730;2022-09-28T04:00:21;90555.88;;;8.74;100.00
59274;BME280;45044;41.572;24.730;2022-09-28T04:02:48;90564.53;;;8.71;100.00
59274;BME280;45044;41.572;24.730;2022-09-28T04:05:15;90566.38;;;8.74;100.00
59274;BME280;45044;41.572;24.730;2022-09-28T04:07:41;90561.53;;;8.51;100.00
59274;BME280;45044;41.572;24.730;2022-09-28T04:10:08;90571.25;;;8.72;100.00
59274;BME280;45044;41.572;24.730;2022-09-28T04:12:35;90565.31;;;8.46;100.00
59274;BME280;45044;41.572;24.730;2022-09-28T04:15:02;90570.16;;;8.51;100.00
59274;BME280;45044;41.572;24.730;2022-09-28T04:17:28;90564.94;;;8.59;100.00
59274;BME280;45044;41.572;24.730;2022-09-28T04:19:55;90574.66;;;8.58;100.00
59274;BME280;45044;41.572;24.730;2022-09-28T04:22:23;90580.63;;;8.66;100.00
59274;BME280;45044;41.572;24.730;2022-09-28T04:24:50;90581.41;;;8.56;100.00
59274;BME280;45044;41.572;24.730;2022-09-28T04:27:16;90580.25;;;8.64;100.00
59274;BME280;45044;41.572;24.730;2022-09-28T04:30:16;90591.88;;;8.63;100.00
59274;BME280;45044;41.572;24.730;2022-09-28T04:32:45;90584.72;;;8.74;100.00
59274;BME280;45044;41.572;24.730;2022-09-28T04:35:12;90574.63;;;8.69;100.00
59274;BME280;45044;41.572;24.730;2022-09-28T04:37:40;90584.41;;;8.43;100.00
59274;BME280;45044;41.572;24.730;2022-09-28T04:40:07;90600.47;;;8.45;100.00
59274;BME280;45044;41.572;24.730;2022-09-28T04:42:35;90590.38;;;8.40;100.00
59274;BME280;45044;41.572;24.730;2022-09-28T04:45:01;90595.25;;;8.56;100.00
59274;BME280;45044;41.572;24.730;2022-09-28T04:47:30;90596.75;;;8.57;100.00
59274;BME280;45044;41.572;24.730;2022-09-28T04:49:56;90595.59;;;8.66;100.00
59274;BME280;45044;41.572;24.730;2022-09-28T04:52:23;90594.09;;;8.68;100.00
59274;BME280;45044;41.572;24.730;2022-09-28T04:54:52;90599.34;;;8.65;100.00
59274;BME280;45044;41.572;24.730;2022-09-28T04:57:18;90601.59;;;8.55;100.00
59274;BME280;45044;41.572;24.730;2022-09-28T04:59:45;90606.84;;;8.66;100.00
59274;BME280;45044;41.572;24.730;2022-09-28T05:02:12;90614.28;;;8.79;100.00
59274;BME280;45044;41.572;24.730;2022-09-28T05:04:40;90611.25;;;8.95;100.00
59274;BME280;45044;41.572;24.730;2022-09-28T05:07:07;90612.00;;;8.99;100.00
59274;BME280;45044;41.572;24.730;2022-09-28T05:09:34;90610.09;;;9.07;100.00
59274;BME280;45044;41.572;24.730;2022-09-28T05:12:04;90612.00;;;8.99;100.00
59274;BME280;45044;41.572;24.730;2022-09-28T05:14:30;90619.81;;;9.10;100.00
59274;BME280;45044;41.572;24.730;2022-09-28T05:16:57;90614.94;;;9.12;100.00
59274;BME280;45044;41.572;24.730;2022-09-28T05:19:24;90609.75;;;9.01;100.00
59274;BME280;45044;41.572;24.730;2022-09-28T05:21:51;90574.63;;;8.73;100.00
59274;BME280;45044;41.572;24.730;2022-09-28T05:24:17;90611.56;;;9.15;100.00
59274;BME280;45044;41.572;24.730;2022-09-28T05:26:44;90616.44;;;9.13;100.00
59274;BME280;45044;41.572;24.730;2022-09-28T05:29:11;90617.16;;;9.21;100.00
59274;BME280;45044;41.572;24.730;2022-09-28T05:31:38;90607.78;;;9.20;100.00
59274;BME280;45044;41.572;24.730;2022-09-28T05:34:05;90612.56;;;9.40;100.00
59274;BME280;45044;41.572;24.730;2022-09-28T05:36:31;90598.28;;;9.48;100.00
59274;BME280;45044;41.572;24.730;2022-09-28T05:38:58;90611.63;;;9.76;100.00
59274;BME280;45044;41.572;24.730;2022-09-28T05:41:25;90614.53;;;9.89;100.00
59274;BME280;45044;41.572;24.730;2022-09-28T05:43:52;90615.34;;;10.35;100.00
59274;BME280;45044;41.572;24.730;2022-09-28T05:46:20;90602.09;;;11.82;100.00
59274;BME280;45044;41.572;24.730;2022-09-28T05:48:49;90606.94;;;14.02;100.00
59274;BME280;45044;41.572;24.730;2022-09-28T05:51:18;90605.47;;;16.09;100.00
59274;BME280;45044;41.572;24.730;2022-09-28T05:53:44;90601.13;;;17.12;100.00
59274;BME280;45044;41.572;24.730;2022-09-28T05:56:11;90608.28;;;17.70;100.00
59274;BME280;45044;41.572;24.730;2022-09-28T05:58:38;90613.59;;;18.34;100.00
59274;BME280;45044;41.572;24.730;2022-09-28T06:01:05;90605.06;;;19.70;89.21
59274;BME280;45044;41.572;24.730;2022-09-28T06:03:32;90613.13;;;20.97;75.55
59274;BME280;45044;41.572;24.730;2022-09-28T06:05:59;90601.34;;;22.04;69.75
59274;BME280;45044;41.572;24.730;2022-09-28T06:08:30;90624.25;;;23.39;60.47
59274;BME280;45044;41.572;24.730;2022-09-28T06:11:00;90626.50;;;24.21;55.45
59274;BME280;45044;41.572;24.730;2022-09-28T06:13:28;90622.78;;;24.18;55.83
59274;BME280;45044;41.572;24.730;2022-09-28T06:15:54;90622.69;;;24.33;56.52
59274;BME280;45044;41.572;24.730;2022-09-28T06:18:21;90616.84;;;21.14;70.85
59274;BME280;45044;41.572;24.730;2022-09-28T06:20:48;90623.97;;;22.90;62.99
59274;BME280;45044;41.572;24.730;2022-09-28T06:23:15;90616.00;;;23.90;56.74
59274;BME280;45044;41.572;24.730;2022-09-28T06:25:41;90613.66;;;24.74;54.27
59274;BME280;45044;41.572;24.730;2022-09-28T06:28:10;90617.16;;;23.84;57.54
59274;BME280;45044;41.572;24.730;2022-09-28T06:30:38;90620.06;;;24.39;54.47
59274;BME280;45044;41.572;24.730;2022-09-28T06:33:08;90607.06;;;23.25;60.04
59274;BME280;45044;41.572;24.730;2022-09-28T06:35:35;90615.38;;;22.13;72.02
59274;BME280;45044;41.572;24.730;2022-09-28T06:38:02;90618.72;;;23.01;64.59
59274;BME280;45044;41.572;24.730;2022-09-28T06:40:29;90601.50;;;25.52;55.05
59274;BME280;45044;41.572;24.730;2022-09-28T06:43:00;90611.34;;;25.89;51.23
59274;BME280;45044;41.572;24.730;2022-09-28T06:45:28;90614.66;;;25.38;52.47
59274;BME280;45044;41.572;24.730;2022-09-28T06:47:59;90613.16;;;27.21;48.93
59274;BME280;45044;41.572;24.730;2022-09-28T06:50:28;90613.78;;;25.87;49.08
59274;BME280;45044;41.572;24.730;2022-09-28T06:52:58;90610.63;;;24.55;53.12
59274;BME280;45044;41.572;24.730;2022-09-28T06:55:25;90608.00;;;25.22;53.33
59274;BME280;45044;41.572;24.730;2022-09-28T06:58:00;90606.59;;;24.83;53.85
59274;BME280;45044;41.572;24.730;2022-09-28T07:00:29;90609.38;;;21.58;76.65
59274;BME280;45044;41.572;24.730;2022-09-28T07:03:00;90614.94;;;20.66;89.45
59274;BME280;45044;41.572;24.730;2022-09-28T07:05:27;90618.41;;;22.93;70.96
59274;BME280;45044;41.572;24.730;2022-09-28T07:07:55;90609.63;;;23.88;64.39
59274;BME280;45044;41.572;24.730;2022-09-28T07:10:24;90606.19;;;24.52;61.29
59274;BME280;45044;41.572;24.730;2022-09-28T07:12:50;90601.56;;;25.98;54.58
59274;BME280;45044;41.572;24.730;2022-09-28T07:15:18;90605.97;;;24.56;63.57
59274;BME280;45044;41.572;24.730;2022-09-28T07:17:45;90592.69;;;26.72;53.22
59274;BME280;45044;41.572;24.730;2022-09-28T07:20:27;90597.91;;;27.29;53.09
59274;BME280;45044;41.572;24.730;2022-09-28T07:22:55;90603.75;;;25.99;55.13
59274;BME280;45044;41.572;24.730;2022-09-28T07:25:27;90604.56;;;27.22;50.54
59274;BME280;45044;41.572;24.730;2022-09-28T07:27:57;90610.91;;;24.63;57.83
59274;BME280;45044;41.572;24.730;2022-09-28T07:30:26;90610.81;;;24.46;58.87
59274;BME280;45044;41.572;24.730;2022-09-28T07:32:54;90601.81;;;26.40;52.56
59274;BME280;45044;41.572;24.730;2022-09-28T07:35:21;90603.16;;;28.31;44.22
59274;BME280;45044;41.572;24.730;2022-09-28T07:37:48;90603.94;;;26.76;50.56
59274;BME280;45044;41.572;24.730;2022-09-28T07:40:14;90593.13;;;25.32;56.49
59274;BME280;45044;41.572;24.730;2022-09-28T07:43:04;90599.97;;;27.00;52.96
59274;BME280;45044;41.572;24.730;2022-09-28T07:45:32;90600.75;;;29.27;39.28
59274;BME280;45044;41.572;24.730;2022-09-28T07:48:02;90598.25;;;29.87;40.16
59274;BME280;45044;41.572;24.730;2022-09-28T07:50:29;90608.91;;;29.66;37.10
59274;BME280;45044;41.572;24.730;2022-09-28T07:52:57;90602.00;;;30.64;34.51
59274;BME280;45044;41.572;24.730;2022-09-28T07:55:26;90571.63;;;29.34;38.94
59274;BME280;45044;41.572;24.730;2022-09-28T07:57:57;90600.06;;;29.21;35.36
59274;BME280;45044;41.572;24.730;2022-09-28T08:00:27;90601.19;;;29.89;33.55
59274;BME280;45044;41.572;24.730;2022-09-28T08:03:02;90601.78;;;25.65;39.95
59274;BME280;45044;41.572;24.730;2022-09-28T08:05:29;90602.53;;;25.71;42.39
59274;BME280;45044;41.572;24.730;2022-09-28T08:07:58;90596.41;;;25.77;39.45
59274;BME280;45044;41.572;24.730;2022-09-28T08:10:25;90592.75;;;26.26;38.80
59274;BME280;45044;41.572;24.730;2022-09-28T08:12:56;90593.47;;;26.26;38.22
59274;BME280;45044;41.572;24.730;2022-09-28T08:15:32;90592.00;;;26.31;38.43
59274;BME280;45044;41.572;24.730;2022-09-28T08:18:05;90598.13;;;26.26;37.15
59274;BME280;45044;41.572;24.730;2022-09-28T08:20:32;90589.69;;;25.20;39.58
59274;BME280;45044;41.572;24.730;2022-09-28T08:23:18;90602.00;;;23.54;42.81
59274;BME280;45044;41.572;24.730;2022-09-28T08:25:49;90604.88;;;22.46;44.33
59274;BME280;45044;41.572;24.730;2022-09-28T08:28:16;90604.81;;;24.24;43.88
59274;BME280;45044;41.572;24.730;2022-09-28T08:30:44;90613.78;;;24.54;41.98
59274;BME280;45044;41.572;24.730;2022-09-28T08:33:12;90613.38;;;24.72;41.77
59274;BME280;45044;41.572;24.730;2022-09-28T08:35:39;90610.00;;;23.75;43.38
59274;BME280;45044;41.572;24.730;2022-09-28T08:38:09;90602.94;;;24.80;39.94
59274;BME280;45044;41.572;24.730;2022-09-28T08:46:12;90594.44;;;25.77;37.92
59274;BME280;45044;41.572;24.730;2022-09-28T08:49:06;90602.88;;;25.18;39.20
59274;BME280;45044;41.572;24.730;2022-09-28T08:54:43;90601.34;;;23.38;43.36
59274;BME280;45044;41.572;24.730;2022-09-28T08:57:15;90590.44;;;23.95;41.65
59274;BME280;45044;41.572;24.730;2022-09-28T08:59:48;90593.44;;;23.76;40.89
59274;BME280;45044;41.572;24.730;2022-09-28T09:02:22;90593.31;;;23.91;41.37
59274;BME280;45044;41.572;24.730;2022-09-28T09:04:51;90617.59;;;23.76;42.69
59274;BME280;45044;41.572;24.730;2022-09-28T09:12:58;90603.16;;;24.76;40.80
59274;BME280;45044;41.572;24.730;2022-09-28T09:21:47;90619.09;;;22.88;42.95
59274;BME280;45044;41.572;24.730;2022-09-28T09:24:24;90625.84;;;22.83;42.59
59274;BME280;45044;41.572;24.730;2022-09-28T09:30:04;90614.53;;;23.63;42.37
59274;BME280;45044;41.572;24.730;2022-09-28T09:33:05;90612.22;;;23.76;42.49
59274;BME280;45044;41.572;24.730;2022-09-28T09:38:34;90604.81;;;24.24;41.68
59274;BME280;45044;41.572;24.730;2022-09-28T09:41:29;90616.72;;;23.91;41.56
59274;BME280;45044;41.572;24.730;2022-09-28T09:44:09;90622.56;;;23.63;45.74
59274;BME280;45044;41.572;24.730;2022-09-28T09:46:45;90609.50;;;24.73;41.74
59274;BME280;45044;41.572;24.730;2022-09-28T09:49:18;90616.13;;;23.75;43.39
59274;BME280;45044;41.572;24.730;2022-09-28T09:51:47;90629.34;;;23.85;41.02
59274;BME280;45044;41.572;24.730;2022-09-28T09:54:29;90623.56;;;23.92;41.87
59274;BME280;45044;41.572;24.730;2022-09-28T09:57:11;90621.38;;;24.23;41.77
59274;BME280;45044;41.572;24.730;2022-09-28T09:59:40;90604.56;;;24.66;41.49
59274;BME280;45044;41.572;24.730;2022-09-28T10:02:30;90611.50;;;24.40;42.55
59274;BME280;45044;41.572;24.730;2022-09-28T10:05:06;90600.22;;;25.41;39.53
59274;BME280;45044;41.572;24.730;2022-09-28T10:07:48;90602.22;;;25.52;40.34
59274;BME280;45044;41.572;24.730;2022-09-28T10:12:52;90603.03;;;25.99;37.90
59274;BME280;45044;41.572;24.730;2022-09-28T10:15:23;90590.38;;;25.09;41.01
59274;BME280;45044;41.572;24.730;2022-09-28T10:17:52;90594.38;;;25.43;38.92
59274;BME280;45044;41.572;24.730;2022-09-28T10:20:20;90609.53;;;24.41;39.95
59274;BME280;45044;41.572;24.730;2022-09-28T10:22:52;90604.47;;;25.88;41.70
59274;BME280;45044;41.572;24.730;2022-09-28T10:25:21;90598.44;;;24.22;42.74
59274;BME280;45044;41.572;24.730;2022-09-28T10:27:50;90609.56;;;22.00;44.82
59274;BME280;45044;41.572;24.730;2022-09-28T10:30:21;90603.97;;;21.13;46.75
59274;BME280;45044;41.572;24.730;2022-09-28T10:32:52;90603.84;;;20.82;49.01
59274;BME280;45044;41.572;24.730;2022-09-28T10:35:27;90598.56;;;20.98;48.17
59274;BME280;45044;41.572;24.730;2022-09-28T10:37:55;90611.69;;;20.86;48.82
59274;BME280;45044;41.572;24.730;2022-09-28T10:40:39;90609.63;;;21.30;49.57
59274;BME280;45044;41.572;24.730;2022-09-28T10:43:22;90601.59;;;21.30;49.28
59274;BME280;45044;41.572;24.730;2022-09-28T10:46:03;90604.59;;;22.08;49.98
59274;BME280;45044;41.572;24.730;2022-09-28T10:51:06;90601.47;;;23.76;44.76
59274;BME280;45044;41.572;24.730;2022-09-28T10:53:34;90608.22;;;22.97;45.97
59274;BME280;45044;41.572;24.730;2022-09-28T10:56:03;90610.09;;;22.91;45.82
59274;BME280;45044;41.572;24.730;2022-09-28T10:58:38;90605.19;;;23.85;43.44
59274;BME280;45044;41.572;24.730;2022-09-28T11:01:19;90598.31;;;24.37;42.41
59274;BME280;45044;41.572;24.730;2022-09-28T11:03:59;90580.06;;;24.96;41.39
59274;BME280;45044;41.572;24.730;2022-09-28T11:06:30;90587.19;;;24.61;39.30
59274;BME280;45044;41.572;24.730;2022-09-28T11:09:00;90589.41;;;24.63;41.80
59274;BME280;45044;41.572;24.730;2022-09-28T11:11:28;90601.97;;;23.48;41.89
59274;BME280;45044;41.572;24.730;2022-09-28T11:13:58;90601.25;;;21.68;46.88
59274;BME280;45044;41.572;24.730;2022-09-28T11:16:31;90600.25;;;21.10;48.63
59274;BME280;45044;41.572;24.730;2022-09-28T11:19:05;90607.63;;;21.00;48.27
59274;BME280;45044;41.572;24.730;2022-09-28T11:21:50;90599.84;;;21.27;48.65
59274;BME280;45044;41.572;24.730;2022-09-28T11:24:22;90596.13;;;21.09;50.40
59274;BME280;45044;41.572;24.730;2022-09-28T11:26:53;90605.16;;;20.87;52.49
59274;BME280;45044;41.572;24.730;2022-09-28T11:29:40;90580.78;;;21.34;50.11
59274;BME280;45044;41.572;24.730;2022-09-28T11:32:09;90586.69;;;21.69;47.56
59274;BME280;45044;41.572;24.730;2022-09-28T11:34:46;90581.44;;;22.77;47.97
59274;BME280;45044;41.572;24.730;2022-09-28T11:40:30;90583.66;;;23.47;46.17
59274;BME280;45044;41.572;24.730;2022-09-28T11:48:25;90571.81;;;23.32;44.40
59274;BME280;45044;41.572;24.730;2022-09-28T11:51:02;90572.50;;;23.06;44.85
59274;BME280;45044;41.572;24.730;2022-09-28T11:53:35;90575.03;;;23.16;44.67
59274;BME280;45044;41.572;24.730;2022-09-28T11:58:45;90580.31;;;23.04;44.98
59274;BME280;45044;41.572;24.730;2022-09-28T12:04:15;90571.28;;;21.63;47.53
59274;BME280;45044;41.572;24.730;2022-09-28T12:06:55;90556.16;;;21.45;47.08
59274;BME280;45044;41.572;24.730;2022-09-28T12:09:37;90563.47;;;20.65;47.32
59274;BME280;45044;41.572;24.730;2022-09-28T12:12:14;90576.47;;;20.48;49.38
59274;BME280;45044;41.572;24.730;2022-09-28T12:14:44;90565.41;;;20.40;51.12
59274;BME280;45044;41.572;24.730;2022-09-28T12:17:25;90568.13;;;20.31;51.57
59274;BME280;45044;41.572;24.730;2022-09-28T12:20:02;90571.38;;;20.35;51.61
59274;BME280;45044;41.572;24.730;2022-09-28T12:22:43;90554.31;;;20.08;53.71
59274;BME280;45044;41.572;24.730;2022-09-28T12:25:18;90558.91;;;19.98;51.58
59274;BME280;45044;41.572;24.730;2022-09-28T12:27:56;90561.88;;;19.91;52.88
59274;BME280;45044;41.572;24.730;2022-09-28T12:30:31;90566.97;;;20.22;53.22
59274;BME280;45044;41.572;24.730;2022-09-28T12:55:36;90575.81;;;21.72;47.65
59274;BME280;45044;41.572;24.730;2022-09-28T12:58:20;90559.59;;;21.61;47.98
59274;BME280;45044;41.572;24.730;2022-09-28T13:09:30;90579.16;;;21.82;46.90
59274;BME280;45044;41.572;24.730;2022-09-28T13:15:19;90582.81;;;21.70;48.19
59274;BME280;45044;41.572;24.730;2022-09-28T13:17:57;90576.00;;;21.69;46.52
59274;BME280;45044;41.572;24.730;2022-09-28T13:28:30;90571.47;;;20.07;51.44
59274;BME280;45044;41.572;24.730;2022-09-28T13:31:00;90566.91;;;20.32;52.65
59274;BME280;45044;41.572;24.730;2022-09-28T13:33:38;90573.44;;;20.31;53.20
59274;BME280;45044;41.572;24.730;2022-09-28T13:38:52;90587.66;;;20.37;51.46
59274;BME280;45044;41.572;24.730;2022-09-28T13:41:51;90588.13;;;20.60;50.37
59274;BME280;45044;41.572;24.730;2022-09-28T13:44:39;90575.22;;;20.58;54.05
59274;BME280;45044;41.572;24.730;2022-09-28T13:47:31;90572.16;;;20.51;52.09
59274;BME280;45044;41.572;24.730;2022-09-28T14:01:18;90580.72;;;21.04;50.71
59274;BME280;45044;41.572;24.730;2022-09-28T14:04:19;90580.16;;;21.00;50.13
59274;BME280;45044;41.572;24.730;2022-09-28T14:11:59;90582.09;;;20.50;52.32
59274;BME280;45044;41.572;24.730;2022-09-28T14:19:51;90584.88;;;20.80;53.42
59274;BME280;45044;41.572;24.730;2022-09-28T14:25:09;90583.91;;;20.68;54.14
59274;BME280;45044;41.572;24.730;2022-09-28T14:36:02;90588.41;;;19.94;54.82
59274;BME280;45044;41.572;24.730;2022-09-28T14:38:44;90582.44;;;19.56;57.88
59274;BME280;45044;41.572;24.730;2022-09-28T14:41:32;90591.78;;;19.42;61.82
59274;BME280;45044;41.572;24.730;2022-09-28T14:44:01;90588.53;;;19.29;60.82
59274;BME280;45044;41.572;24.730;2022-09-28T14:56:31;90587.16;;;19.61;60.60
59274;BME280;45044;41.572;24.730;2022-09-28T14:58:59;90594.28;;;19.55;68.30
59274;BME280;45044;41.572;24.730;2022-09-28T15:01:26;90592.81;;;19.45;63.10
59274;BME280;45044;41.572;24.730;2022-09-28T15:03:55;90603.47;;;19.54;62.05
59274;BME280;45044;41.572;24.730;2022-09-28T15:06:25;90602.16;;;19.40;63.01
59274;BME280;45044;41.572;24.730;2022-09-28T15:08:54;90616.81;;;19.26;67.51
59274;BME280;45044;41.572;24.730;2022-09-28T15:11:23;90612.53;;;19.19;63.91
59274;BME280;45044;41.572;24.730;2022-09-28T15:14:04;90608.06;;;18.97;65.29
59274;BME280;45044;41.572;24.730;2022-09-28T15:16:31;90614.41;;;18.81;65.99
59274;BME280;45044;41.572;24.730;2022-09-28T15:21:54;90631.09;;;18.72;75.13
59274;BME280;45044;41.572;24.730;2022-09-28T15:24:26;90625.06;;;18.72;72.31
59274;BME280;45044;41.572;24.730;2022-09-28T15:26:54;90628.88;;;18.52;73.56
59274;BME280;45044;41.572;24.730;2022-09-28T15:29:22;90630.19;;;18.57;75.24
59274;BME280;45044;41.572;24.730;2022-09-28T15:31:51;90639.94;;;18.60;71.86
59274;BME280;45044;41.572;24.730;2022-09-28T15:34:34;90648.03;;;18.37;74.27
59274;BME280;45044;41.572;24.730;2022-09-28T15:37:26;90646.06;;;18.28;79.93
59274;BME280;45044;41.572;24.730;2022-09-28T15:39:55;90644.91;;;18.29;80.35
59274;BME280;45044;41.572;24.730;2022-09-28T15:42:23;90647.38;;;18.24;80.94
59274;BME280;45044;41.572;24.730;2022-09-28T15:47:33;90646.59;;;18.14;84.17
59274;BME280;45044;41.572;24.730;2022-09-28T15:50:06;90656.78;;;17.83;89.79
59274;BME280;45044;41.572;24.730;2022-09-28T15:52:52;90648.97;;;17.57;100.00
59274;BME280;45044;41.572;24.730;2022-09-28T15:55:41;90651.91;;;17.59;100.00
59274;BME280;45044;41.572;24.730;2022-09-28T15:58:19;90646.56;;;17.50;100.00
59274;BME280;45044;41.572;24.730;2022-09-28T16:00:48;90653.09;;;17.00;100.00
59274;BME280;45044;41.572;24.730;2022-09-28T16:03:27;90641.91;;;16.70;100.00
59274;BME280;45044;41.572;24.730;2022-09-28T16:11:27;90642.94;;;16.24;100.00
59274;BME280;45044;41.572;24.730;2022-09-28T16:14:04;90641.31;;;16.27;100.00